KARW

Beaufort County Airport

Beaufort, South Carolina, USA
METAR KARW 190855Z AUTO 02008KT 7SM OVC050 17/11 A3028 RMK AO2
Observed Flight Rules
Oct-19 @ 08:55 UTC (10 minutes ago) Visual Flight Rules
Wind Visibility Clouds
20° at 8 knots 7 miles
  • Overcast at 5,000' AGL
Temperatures Readings
Current 17°C / 63°F
Dewpoint 11°C / 52°F
Humidity 68%
Altimeter 30.28" Hg
Pressure 1025 hPa
Elevation 4
METAR KARW 190855Z AUTO 02008KT 7SM OVC050 17/11 A3028 RMK AO2
Observed Flight Rules
Oct-19 @ 08:55 UTC
(10 minutes ago)
VFR
Wind Visibility
20° at 8 knots 7 miles
Clouds
  • Overcast at 5,000' AGL
Temperature Dewpoint
17°C / 63°F 11°C / 52°F
Humidity Altimeter Pressure
68% 30.28" Hg 1025 hPa